Time;durP1;ratioP1;P1;durP2;ratioP2;P2;SDS_P1;SDS_P2;PMS_P1;PMS_P2;Temp;Humidity;BMP_temperature;BMP_pressure;BME280_temperature;BME280_humidity;BME280_pressure;Samples;Min_cycle;Max_cycle;Signal;HPM_P1;HPM_P2
2023/08/06 00:00:27;;;;;;;9.07;6.25;;;14.10;99.90;;;;;;5049652;28;20038;-84
2023/08/06 00:02:54;;;;;;;11.25;6.15;;;14.10;99.90;;;;;;5032922;28;20096;-83
2023/08/06 00:05:21;;;;;;;12.38;6.65;;;14.10;99.90;;;;;;5033244;28;20124;-83
2023/08/06 00:07:48;;;;;;;8.88;6.40;;;14.20;99.90;;;;;;5017142;28;20227;-83
2023/08/06 00:10:15;;;;;;;8.13;6.25;;;14.10;99.90;;;;;;5016672;28;20508;-83
2023/08/06 00:12:42;;;;;;;8.25;6.32;;;14.10;99.90;;;;;;5017097;28;20048;-83
2023/08/06 00:15:10;;;;;;;9.95;6.43;;;14.10;99.90;;;;;;5016884;28;20159;-83
2023/08/06 00:17:37;;;;;;;12.73;6.60;;;14.10;99.90;;;;;;5049069;28;20042;-83
2023/08/06 00:20:06;;;;;;;11.40;6.65;;;14.10;99.90;;;;;;5033087;28;20099;-83
2023/08/06 00:22:36;;;;;;;9.45;6.50;;;14.10;99.90;;;;;;5017002;28;20037;-83
2023/08/06 00:25:04;;;;;;;11.98;6.50;;;14.10;99.90;;;;;;5016994;28;20402;-83
2023/08/06 00:27:32;;;;;;;13.20;6.97;;;14.10;99.90;;;;;;5049802;28;20136;-83
2023/08/06 00:29:59;;;;;;;12.73;6.55;;;14.10;99.90;;;;;;5016784;28;20103;-83
2023/08/06 00:32:26;;;;;;;12.38;7.43;;;14.10;99.90;;;;;;5033084;28;20402;-83
2023/08/06 00:34:52;;;;;;;9.02;7.07;;;14.10;99.90;;;;;;5016519;28;20385;-83
2023/08/06 00:37:19;;;;;;;10.02;6.93;;;14.10;99.90;;;;;;5016329;28;20037;-83
2023/08/06 00:39:46;;;;;;;14.82;7.07;;;14.10;99.90;;;;;;5016572;28;20116;-83
2023/08/06 00:42:12;;;;;;;11.05;6.80;;;14.10;99.90;;;;;;5016386;28;20057;-83
2023/08/06 00:44:39;;;;;;;11.27;7.07;;;14.10;99.90;;;;;;5016582;28;20048;-83
2023/08/06 00:47:07;;;;;;;11.10;7.72;;;14.10;99.90;;;;;;5032582;28;20041;-83
2023/08/06 00:49:36;;;;;;;11.13;7.28;;;14.10;99.90;;;;;;5035718;28;20128;-83
2023/08/06 00:52:05;;;;;;;11.52;7.35;;;14.10;99.90;;;;;;5020254;28;20512;-83
2023/08/06 00:54:32;;;;;;;10.98;7.13;;;14.10;99.90;;;;;;5036707;28;20038;-83
2023/08/06 00:57:00;;;;;;;10.18;6.97;;;14.10;99.90;;;;;;5052967;28;20085;-83
2023/08/06 00:59:28;;;;;;;14.43;7.32;;;14.00;99.90;;;;;;5020824;28;20041;-83
2023/08/06 01:01:55;;;;;;;14.00;7.63;;;14.10;99.90;;;;;;5020668;28;20037;-83
2023/08/06 01:04:23;;;;;;;12.95;7.72;;;14.10;99.90;;;;;;5020276;28;20045;-83
2023/08/06 01:07:33;;;;;;;14.15;8.13;;;14.10;99.90;;;;;;5053143;28;20041;-83
2023/08/06 01:10:34;;;;;;;11.13;7.90;;;14.20;99.90;;;;;;4991483;28;20049;-83
2023/08/06 01:13:18;;;;;;;13.90;7.60;;;14.20;99.90;;;;;;5036596;28;20037;-83
2023/08/06 01:15:49;;;;;;;12.25;7.85;;;14.10;99.90;;;;;;5036770;28;20441;-83
2023/08/06 01:18:16;;;;;;;13.65;7.68;;;14.10;99.90;;;;;;5035447;28;20072;-84
2023/08/06 01:20:42;;;;;;;11.48;8.25;;;14.20;99.90;;;;;;5036271;28;20489;-83
2023/08/06 01:23:09;;;;;;;11.68;8.32;;;14.20;99.90;;;;;;5052270;28;20044;-83
2023/08/06 01:25:55;;;;;;;13.32;8.70;;;14.10;99.90;;;;;;5019908;28;20080;-83
2023/08/06 01:28:33;;;;;;;11.55;8.43;;;14.10;99.90;;;;;;5052219;28;20399;-83
2023/08/06 01:31:02;;;;;;;12.27;8.23;;;14.10;99.90;;;;;;5052501;28;20037;-83
2023/08/06 01:33:34;;;;;;;10.68;8.07;;;14.10;99.90;;;;;;5019921;28;20493;-83
2023/08/06 01:36:02;;;;;;;11.20;8.25;;;14.10;99.90;;;;;;5036210;28;20041;-83
2023/08/06 01:38:29;;;;;;;11.20;8.23;;;14.20;99.90;;;;;;5020104;28;20049;-83
2023/08/06 01:40:55;;;;;;;12.25;8.57;;;14.20;99.90;;;;;;5019940;28;20041;-83
2023/08/06 01:43:22;;;;;;;12.40;8.45;;;14.20;99.90;;;;;;5019271;28;20771;-83
2023/08/06 01:45:49;;;;;;;12.82;8.43;;;14.10;99.90;;;;;;5035578;28;20434;-83
2023/08/06 01:48:15;;;;;;;14.07;8.38;;;14.10;99.90;;;;;;5019141;28;20073;-83
2023/08/06 01:50:42;;;;;;;10.88;8.15;;;14.10;99.90;;;;;;5019440;28;20052;-83
2023/08/06 01:53:09;;;;;;;10.18;7.90;;;14.10;99.90;;;;;;5019318;28;20517;-83
2023/08/06 01:55:35;;;;;;;10.32;7.78;;;14.10;99.90;;;;;;5019112;28;20042;-83
2023/08/06 01:58:02;;;;;;;10.13;7.40;;;14.10;99.90;;;;;;5019293;28;20086;-83
2023/08/06 02:00:29;;;;;;;11.75;7.63;;;14.10;99.90;;;;;;5034545;28;20049;-83
2023/08/06 02:02:55;;;;;;;13.85;7.65;;;14.10;99.90;;;;;;5035212;28;20125;-83
2023/08/06 02:05:22;;;;;;;10.90;7.47;;;14.10;99.90;;;;;;5018663;28;20045;-83
2023/08/06 02:07:49;;;;;;;9.60;7.28;;;14.10;99.90;;;;;;5019612;28;20049;-83
2023/08/06 02:10:15;;;;;;;12.80;7.45;;;14.20;99.90;;;;;;5019117;28;20041;-83
2023/08/06 02:12:42;;;;;;;11.80;7.25;;;14.20;99.90;;;;;;5035887;28;20045;-83
2023/08/06 02:15:09;;;;;;;11.43;7.47;;;14.20;99.90;;;;;;5018623;28;20415;-83
2023/08/06 02:17:36;;;;;;;9.68;7.35;;;14.20;99.90;;;;;;5018968;28;20482;-83
2023/08/06 02:20:03;;;;;;;12.15;7.25;;;14.20;99.90;;;;;;5019151;28;20053;-83
2023/08/06 02:22:29;;;;;;;12.73;7.35;;;14.20;99.90;;;;;;5019126;28;20502;-83
2023/08/06 02:24:56;;;;;;;9.13;6.72;;;14.20;99.90;;;;;;5035578;28;20046;-83
2023/08/06 02:27:23;;;;;;;11.85;6.80;;;14.20;99.90;;;;;;5018551;28;20080;-83
2023/08/06 02:29:49;;;;;;;10.32;6.97;;;14.20;99.90;;;;;;5019053;28;20041;-83
2023/08/06 02:32:16;;;;;;;11.25;6.82;;;14.20;99.90;;;;;;5018623;28;20095;-83
2023/08/06 02:34:43;;;;;;;11.63;6.18;;;14.20;99.90;;;;;;5034868;28;20045;-83
2023/08/06 02:37:10;;;;;;;11.35;6.95;;;14.20;99.90;;;;;;5035248;28;20072;-83
2023/08/06 02:39:39;;;;;;;11.85;7.35;;;14.30;99.90;;;;;;5067679;28;20048;-83
2023/08/06 02:42:09;;;;;;;9.90;7.00;;;14.20;99.90;;;;;;5051362;28;20043;-83
2023/08/06 02:44:36;;;;;;;11.48;6.28;;;14.20;99.90;;;;;;5034486;28;20077;-83
2023/08/06 02:47:03;;;;;;;13.13;7.03;;;14.20;99.90;;;;;;5018517;28;20134;-83
2023/08/06 02:49:29;;;;;;;8.57;6.60;;;14.20;99.90;;;;;;5018565;28;20048;-83
2023/08/06 02:51:56;;;;;;;11.80;6.93;;;14.20;99.90;;;;;;5018315;28;20077;-83
2023/08/06 02:54:23;;;;;;;9.05;6.55;;;14.20;99.90;;;;;;5034351;28;20041;-83
2023/08/06 02:56:50;;;;;;;9.30;6.90;;;14.20;99.90;;;;;;5018363;28;20099;-83
2023/08/06 02:59:16;;;;;;;9.43;6.28;;;14.20;99.90;;;;;;5018389;28;20079;-84
2023/08/06 03:01:43;;;;;;;11.45;6.72;;;14.20;99.90;;;;;;5018498;28;20140;-83
2023/08/06 03:04:10;;;;;;;9.52;6.63;;;14.20;99.90;;;;;;5034570;28;20045;-83
2023/08/06 03:06:36;;;;;;;14.82;7.25;;;14.20;99.90;;;;;;5018001;28;20049;-83
2023/08/06 03:09:03;;;;;;;11.20;6.78;;;14.20;99.90;;;;;;5018104;28;20128;-83
2023/08/06 03:11:30;;;;;;;11.57;6.93;;;14.20;99.90;;;;;;5017711;28;20049;-83
2023/08/06 03:13:56;;;;;;;9.75;6.68;;;14.20;99.90;;;;;;5034091;28;20048;-83
2023/08/06 03:16:23;;;;;;;10.55;6.63;;;14.20;99.90;;;;;;5050212;28;20399;-83
2023/08/06 03:18:50;;;;;;;10.10;6.57;;;14.20;99.90;;;;;;5014536;28;20054;-83
2023/08/06 03:21:16;;;;;;;10.38;6.50;;;14.20;99.90;;;;;;5014007;28;20128;-83
2023/08/06 03:23:46;;;;;;;8.63;6.30;;;14.20;99.90;;;;;;5014491;28;20081;-83
2023/08/06 03:26:13;;;;;;;9.70;7.05;;;14.20;99.90;;;;;;5030467;28;20053;-83
2023/08/06 03:28:39;;;;;;;10.35;7.25;;;14.20;99.90;;;;;;5014421;28;20490;-83
2023/08/06 03:31:06;;;;;;;14.75;7.72;;;14.20;99.90;;;;;;5030736;28;20046;-83
2023/08/06 03:33:33;;;;;;;11.60;7.15;;;14.20;99.90;;;;;;5013787;28;20100;-83
2023/08/06 03:36:00;;;;;;;12.98;8.02;;;14.20;99.90;;;;;;5014214;28;20042;-83
2023/08/06 03:38:27;;;;;;;11.40;7.10;;;14.20;99.90;;;;;;5029881;28;20049;-83
2023/08/06 03:40:54;;;;;;;11.85;7.28;;;14.20;99.90;;;;;;5030269;28;20080;-83
2023/08/06 03:43:21;;;;;;;9.88;7.07;;;14.20;99.90;;;;;;5046382;28;20501;-83
2023/08/06 03:45:47;;;;;;;12.95;8.18;;;14.20;99.90;;;;;;5013781;28;20565;-83
2023/08/06 03:48:14;;;;;;;11.52;7.93;;;14.20;99.90;;;;;;5030017;28;20498;-83
2023/08/06 03:50:41;;;;;;;12.32;7.93;;;14.20;99.90;;;;;;5013664;28;20121;-83
2023/08/06 03:53:08;;;;;;;10.80;7.32;;;14.20;99.90;;;;;;5014234;28;20041;-83
2023/08/06 03:55:35;;;;;;;12.55;7.68;;;14.10;99.90;;;;;;5013631;28;20038;-83
2023/08/06 03:58:01;;;;;;;11.35;7.57;;;14.10;99.90;;;;;;5029815;28;20038;-83
2023/08/06 04:00:28;;;;;;;11.10;7.20;;;14.10;99.90;;;;;;5029435;28;20069;-83
2023/08/06 04:02:55;;;;;;;10.40;6.97;;;14.10;99.90;;;;;;5029418;28;20048;-83
2023/08/06 04:05:21;;;;;;;12.43;7.72;;;14.10;99.90;;;;;;5013338;28;20100;-83
2023/08/06 04:07:48;;;;;;;10.52;7.72;;;14.20;99.90;;;;;;5013445;28;20042;-83
2023/08/06 04:10:15;;;;;;;14.50;7.35;;;14.10;99.90;;;;;;5029517;28;20212;-83
2023/08/06 04:12:41;;;;;;;12.63;7.55;;;14.10;99.90;;;;;;5029300;28;20042;-83
2023/08/06 04:15:08;;;;;;;12.85;7.15;;;14.10;99.90;;;;;;5029666;28;20100;-83
2023/08/06 04:17:35;;;;;;;9.85;7.07;;;14.10;99.90;;;;;;5029181;28;20069;-83
2023/08/06 04:20:02;;;;;;;12.65;7.55;;;14.10;99.90;;;;;;4997816;28;20137;-83
2023/08/06 04:22:29;;;;;;;10.18;7.80;;;14.10;99.90;;;;;;5045599;28;20049;-83
2023/08/06 04:24:56;;;;;;;16.63;7.90;;;14.10;99.90;;;;;;5045811;28;20446;-83
2023/08/06 04:27:23;;;;;;;14.75;7.10;;;14.10;99.90;;;;;;5013356;28;20054;-83
2023/08/06 04:29:49;;;;;;;13.38;7.72;;;14.10;99.90;;;;;;4997280;28;20042;-83
2023/08/06 04:32:17;;;;;;;11.10;7.22;;;14.10;99.90;;;;;;4997588;28;20042;-83
2023/08/06 04:34:43;;;;;;;11.80;7.10;;;14.10;99.90;;;;;;4996712;28;20494;-83
2023/08/06 04:37:10;;;;;;;9.05;6.70;;;14.10;99.90;;;;;;4997282;28;20030;-83
2023/08/06 04:39:37;;;;;;;12.20;6.75;;;14.10;99.90;;;;;;5029320;28;20434;-83
2023/08/06 04:42:04;;;;;;;8.50;6.20;;;14.10;99.90;;;;;;4997100;28;20096;-84
2023/08/06 04:44:31;;;;;;;11.05;6.90;;;14.10;99.90;;;;;;5013118;28;20042;-83
2023/08/06 04:46:57;;;;;;;9.38;6.30;;;14.10;99.90;;;;;;5029350;28;20046;-83
2023/08/06 04:49:25;;;;;;;9.48;6.35;;;14.10;99.90;;;;;;5029387;28;20033;-83
2023/08/06 04:51:51;;;;;;;9.65;6.68;;;14.10;99.90;;;;;;4996917;28;20041;-83
2023/08/06 04:54:18;;;;;;;11.88;6.35;;;14.20;99.90;;;;;;5013191;28;20100;-83
2023/08/06 04:56:45;;;;;;;11.00;6.50;;;14.20;99.90;;;;;;4997189;28;20045;-83
2023/08/06 04:59:12;;;;;;;14.90;7.07;;;14.20;99.90;;;;;;5013201;28;20077;-83
2023/08/06 05:01:38;;;;;;;10.00;6.05;;;14.20;99.90;;;;;;5029116;28;20038;-83
2023/08/06 05:04:05;;;;;;;9.75;6.15;;;14.30;99.90;;;;;;5029618;28;20037;-84
2023/08/06 05:06:32;;;;;;;9.80;6.60;;;14.30;99.90;;;;;;4996759;28;20045;-83
2023/08/06 05:08:58;;;;;;;10.52;5.97;;;14.30;99.90;;;;;;5013325;28;20048;-83
2023/08/06 05:11:25;;;;;;;8.63;5.88;;;14.30;99.90;;;;;;5013455;28;20096;-83
2023/08/06 05:13:52;;;;;;;9.52;5.95;;;14.40;99.90;;;;;;4996677;28;20052;-83
2023/08/06 05:16:19;;;;;;;10.10;6.13;;;14.40;99.90;;;;;;5029005;28;20048;-83
2023/08/06 05:18:45;;;;;;;8.55;5.97;;;14.40;99.90;;;;;;5002532;28;20061;-83
2023/08/06 05:21:12;;;;;;;11.77;5.95;;;14.40;99.90;;;;;;5045300;28;20418;-83
2023/08/06 05:23:39;;;;;;;9.32;5.90;;;14.50;99.90;;;;;;5028950;28;20038;-83
2023/08/06 05:26:05;;;;;;;10.48;5.63;;;14.50;99.90;;;;;;5029315;28;20045;-83
2023/08/06 05:28:32;;;;;;;9.57;5.55;;;14.50;99.90;;;;;;5029086;28;20069;-83
2023/08/06 05:31:02;;;;;;;9.50;6.35;;;14.60;99.90;;;;;;5044896;28;20128;-83
2023/08/06 05:33:29;;;;;;;7.47;5.80;;;14.50;99.90;;;;;;5045591;28;20042;-83
2023/08/06 05:35:56;;;;;;;12.00;5.95;;;14.60;99.90;;;;;;5031031;28;20049;-83
2023/08/06 05:38:23;;;;;;;12.45;6.63;;;14.60;99.90;;;;;;5032773;28;20049;-83
2023/08/06 05:40:49;;;;;;;11.50;6.28;;;14.60;99.90;;;;;;5032466;28;20038;-83
2023/08/06 05:43:16;;;;;;;8.63;6.18;;;14.70;99.90;;;;;;5049056;28;20045;-83
2023/08/06 05:45:49;;;;;;;11.15;6.43;;;14.70;99.90;;;;;;5032091;28;20081;-83
2023/08/06 05:48:16;;;;;;;9.40;6.13;;;14.80;99.90;;;;;;5049102;28;20091;-83
2023/08/06 05:50:42;;;;;;;8.68;5.88;;;14.90;99.90;;;;;;5015912;28;20037;-83
2023/08/06 05:53:09;;;;;;;9.43;6.18;;;15.00;99.90;;;;;;5032865;28;20498;-83
2023/08/06 05:55:36;;;;;;;8.82;5.75;;;15.00;99.90;;;;;;5032224;28;20124;-83
2023/08/06 05:58:03;;;;;;;9.43;5.80;;;15.10;99.90;;;;;;5032550;28;20053;-83
2023/08/06 06:00:29;;;;;;;9.48;6.10;;;15.10;99.90;;;;;;5048608;28;20073;-83
2023/08/06 06:02:56;;;;;;;11.52;6.32;;;15.10;99.90;;;;;;5032112;28;20441;-83
2023/08/06 06:05:23;;;;;;;8.90;6.55;;;15.20;99.90;;;;;;5032077;28;20042;-83
2023/08/06 06:07:50;;;;;;;8.45;5.95;;;15.30;99.90;;;;;;5048194;28;20494;-83
2023/08/06 06:10:16;;;;;;;9.35;6.47;;;15.30;99.90;;;;;;5032227;28;20049;-83
2023/08/06 06:12:43;;;;;;;10.05;6.05;;;15.40;99.90;;;;;;5048131;28;20037;-83
2023/08/06 06:15:10;;;;;;;12.40;6.30;;;15.40;99.90;;;;;;5048218;28;20048;-83
2023/08/06 06:17:37;;;;;;;9.45;6.10;;;15.40;99.90;;;;;;5031855;28;20050;-83
2023/08/06 06:20:04;;;;;;;9.93;6.32;;;15.50;99.90;;;;;;5031554;28;20108;-83
2023/08/06 06:22:31;;;;;;;10.18;6.30;;;15.50;99.90;;;;;;5031983;28;20096;-83
2023/08/06 06:24:58;;;;;;;9.50;5.90;;;15.50;99.90;;;;;;5031665;28;20502;-83
2023/08/06 06:27:24;;;;;;;12.52;6.28;;;15.50;99.90;;;;;;5032330;28;20482;-83
2023/08/06 06:29:52;;;;;;;9.40;6.25;;;15.50;99.90;;;;;;5047957;28;20041;-83
2023/08/06 06:32:19;;;;;;;14.20;6.75;;;15.50;99.90;;;;;;5031963;28;20045;-83
2023/08/06 06:34:45;;;;;;;9.75;6.13;;;15.50;99.90;;;;;;5047498;28;20120;-83
2023/08/06 06:37:12;;;;;;;8.70;6.20;;;15.50;99.90;;;;;;5047920;28;20045;-83
2023/08/06 06:39:39;;;;;;;10.80;6.60;;;15.60;99.90;;;;;;5031735;28;20076;-83
2023/08/06 06:42:06;;;;;;;10.88;6.65;;;15.60;99.90;;;;;;5031281;28;20046;-83
2023/08/06 06:44:32;;;;;;;10.57;6.32;;;15.70;99.90;;;;;;5031253;28;20046;-83
2023/08/06 06:46:59;;;;;;;9.35;6.82;;;15.80;99.90;;;;;;5030996;28;20454;-83
2023/08/06 06:49:26;;;;;;;10.82;6.80;;;15.80;99.90;;;;;;5031266;28;20045;-83
2023/08/06 06:51:52;;;;;;;12.18;6.78;;;15.80;99.90;;;;;;5031136;28;20049;-83
2023/08/06 06:54:19;;;;;;;11.70;7.00;;;15.90;99.90;;;;;;5047499;28;20402;-83
2023/08/06 06:56:46;;;;;;;9.02;6.72;;;15.90;99.90;;;;;;5046943;28;20050;-83
2023/08/06 06:59:12;;;;;;;7.95;6.25;;;15.90;99.90;;;;;;5031380;28;20807;-83
2023/08/06 07:01:39;;;;;;;8.27;6.25;;;15.90;99.90;;;;;;5031510;28;20041;-83
2023/08/06 07:04:06;;;;;;;9.63;6.63;;;16.00;99.90;;;;;;5030771;28;20045;-83
2023/08/06 07:06:32;;;;;;;8.52;6.43;;;16.10;99.90;;;;;;5031006;28;20045;-83
2023/08/06 07:08:59;;;;;;;8.93;6.93;;;16.10;99.90;;;;;;5030823;28;20124;-83
2023/08/06 07:11:26;;;;;;;8.90;7.03;;;16.20;99.90;;;;;;5030898;28;20049;-83
2023/08/06 07:13:58;;;;;;;9.30;6.93;;;16.20;99.90;;;;;;5030698;28;20496;-84
2023/08/06 07:16:25;;;;;;;9.50;7.00;;;16.40;99.90;;;;;;5031128;28;20100;-83
2023/08/06 07:18:54;;;;;;;9.23;7.00;;;16.40;99.90;;;;;;5035629;28;20057;-83
2023/08/06 07:21:21;;;;;;;9.13;6.88;;;16.50;99.90;;;;;;5034397;28;20128;-83
2023/08/06 07:23:49;;;;;;;8.70;6.80;;;16.60;99.90;;;;;;5050593;28;20064;-83
2023/08/06 07:26:16;;;;;;;9.80;6.40;;;16.60;99.90;;;;;;5050221;28;20045;-83
2023/08/06 07:28:44;;;;;;;9.57;6.68;;;16.70;99.90;;;;;;5033991;28;20414;-83
2023/08/06 07:31:11;;;;;;;8.13;6.50;;;16.80;99.90;;;;;;5050136;28;20129;-83
2023/08/06 07:33:38;;;;;;;12.90;6.57;;;16.90;99.90;;;;;;5033901;28;20128;-84
2023/08/06 07:36:12;;;;;;;8.52;6.00;;;16.90;99.90;;;;;;5050091;28;20071;-83
2023/08/06 07:38:39;;;;;;;8.23;6.63;;;16.90;99.90;;;;;;5050085;28;20103;-83
2023/08/06 07:41:05;;;;;;;8.75;6.53;;;17.00;99.90;;;;;;5033422;28;20504;-83
2023/08/06 07:43:35;;;;;;;8.25;6.10;;;17.00;99.90;;;;;;5033733;28;20049;-83
2023/08/06 07:46:02;;;;;;;8.48;6.20;;;17.10;99.90;;;;;;5050254;28;20041;-83
2023/08/06 07:48:29;;;;;;;8.90;6.13;;;17.20;99.90;;;;;;5066193;28;20079;-83
2023/08/06 07:50:57;;;;;;;8.15;5.93;;;17.20;99.90;;;;;;5066470;28;20037;-84
2023/08/06 07:53:26;;;;;;;8.32;6.40;;;17.30;99.90;;;;;;5049632;28;20041;-84
2023/08/06 07:55:54;;;;;;;11.77;6.15;;;17.50;99.90;;;;;;5033525;28;20075;-83
2023/08/06 07:58:21;;;;;;;7.15;5.30;;;17.50;99.90;;;;;;5049372;28;20043;-83
2023/08/06 08:00:47;;;;;;;10.05;5.68;;;17.50;99.90;;;;;;5033688;28;20112;-83
2023/08/06 08:03:15;;;;;;;8.32;5.70;;;17.50;99.90;;;;;;5049601;28;20037;-84
2023/08/06 08:05:46;;;;;;;9.00;5.35;;;17.50;99.90;;;;;;5049597;28;20489;-83
2023/08/06 08:08:12;;;;;;;7.30;5.43;;;17.70;99.90;;;;;;5049448;28;20132;-84
2023/08/06 08:10:39;;;;;;;6.47;4.90;;;17.70;99.90;;;;;;5033603;28;20131;-83
2023/08/06 08:13:06;;;;;;;7.57;5.05;;;17.80;99.90;;;;;;5049199;28;20052;-84
2023/08/06 08:15:34;;;;;;;7.22;4.72;;;17.80;99.90;;;;;;5049329;28;20413;-84
2023/08/06 08:18:01;;;;;;;6.47;4.78;;;17.80;99.90;;;;;;5049319;28;20138;-84
2023/08/06 08:20:31;;;;;;;6.97;5.20;;;17.70;99.90;;;;;;5045855;28;20084;-84
2023/08/06 08:23:01;;;;;;;9.07;5.70;;;17.80;99.90;;;;;;5045711;28;20050;-84
2023/08/06 08:25:29;;;;;;;8.13;5.97;;;17.80;99.90;;;;;;5014126;28;20042;-84
2023/08/06 08:27:55;;;;;;;7.25;5.18;;;17.90;99.90;;;;;;5045909;28;20518;-84
2023/08/06 08:30:24;;;;;;;6.95;5.20;;;17.90;99.90;;;;;;5029352;28;20085;-84
2023/08/06 08:32:51;;;;;;;8.02;5.18;;;17.90;99.90;;;;;;5046032;28;20132;-84
2023/08/06 08:35:18;;;;;;;7.65;5.32;;;18.00;99.90;;;;;;5045710;28;20034;-84
2023/08/06 08:37:48;;;;;;;7.35;5.15;;;18.10;99.90;;;;;;5013464;28;20077;-84
2023/08/06 08:40:15;;;;;;;11.73;4.93;;;18.10;99.90;;;;;;5013172;28;20067;-84
2023/08/06 08:42:42;;;;;;;11.18;5.07;;;18.20;99.90;;;;;;5045897;28;20042;-84
2023/08/06 08:45:14;;;;;;;9.02;4.55;;;18.30;99.90;;;;;;5029281;28;20049;-84
2023/08/06 08:47:47;;;;;;;6.45;4.70;;;18.50;99.90;;;;;;5045848;28;20104;-84
2023/08/06 08:50:15;;;;;;;6.35;4.03;;;18.70;99.90;;;;;;5045578;28;20069;-84
2023/08/06 08:52:45;;;;;;;7.22;3.70;;;18.90;99.90;;;;;;5013359;28;20038;-84
2023/08/06 08:55:13;;;;;;;6.90;3.30;;;19.00;99.90;;;;;;5029339;28;20117;-84
2023/08/06 08:57:40;;;;;;;5.03;3.08;;;19.20;99.90;;;;;;5045796;28;20133;-84
2023/08/06 09:00:07;;;;;;;6.65;3.53;;;19.20;99.90;;;;;;5012793;28;20145;-84
2023/08/06 09:02:36;;;;;;;8.80;3.03;;;19.30;99.90;;;;;;5029227;28;20037;-84
2023/08/06 09:05:05;;;;;;;7.88;3.30;;;19.50;99.90;;;;;;5045177;28;20587;-85
2023/08/06 09:07:46;;;;;;;3.67;2.70;;;19.60;99.90;;;;;;5045279;28;20041;-84
2023/08/06 09:10:17;;;;;;;5.45;2.72;;;19.70;99.90;;;;;;5047614;28;20053;-84
2023/08/06 09:12:45;;;;;;;7.03;3.22;;;19.80;99.90;;;;;;5049348;28;20050;-84
2023/08/06 09:15:13;;;;;;;4.00;2.38;;;19.90;99.90;;;;;;5049035;28;20485;-84
2023/08/06 09:17:40;;;;;;;3.45;2.25;;;20.00;99.90;;;;;;5033308;28;20041;-84
2023/08/06 09:20:14;;;;;;;3.58;2.20;;;20.00;99.90;;;;;;5048870;28;20735;-84
2023/08/06 09:22:42;;;;;;;;;;;20.10;99.90;;;;;;5049861;28;20054;-84
2023/08/06 09:25:13;;;;;;;4.45;2.08;;;20.10;99.90;;;;;;5048780;28;19975;-84
2023/08/06 09:27:40;;;;;;;3.50;2.10;;;20.20;99.90;;;;;;5017452;28;20552;-84
2023/08/06 09:30:07;;;;;;;3.05;1.80;;;20.20;99.90;;;;;;5016497;28;20034;-84
2023/08/06 09:32:47;;;;;;;4.07;2.08;;;20.30;99.90;;;;;;5016670;28;20525;-83
2023/08/06 09:35:18;;;;;;;4.53;1.90;;;20.40;99.90;;;;;;5016194;28;20462;-84
2023/08/06 09:37:45;;;;;;;3.17;1.80;;;20.50;99.90;;;;;;5016718;28;20128;-84
2023/08/06 09:40:29;;;;;;;3.35;1.40;;;20.50;99.90;;;;;;5048782;28;20037;-84
2023/08/06 09:42:57;;;;;;;3.20;1.70;;;20.60;99.90;;;;;;5033048;28;20556;-84
2023/08/06 09:45:32;;;;;;;2.50;1.50;;;20.60;99.90;;;;;;5016033;28;20045;-84
2023/08/06 09:48:02;;;;;;;2.90;1.55;;;20.70;99.90;;;;;;5048749;28;20068;-84
2023/08/06 09:50:31;;;;;;;3.67;1.60;;;20.70;99.90;;;;;;5032386;28;20046;-83
2023/08/06 09:52:59;;;;;;;3.15;1.50;;;20.80;99.90;;;;;;5048585;28;20042;-84
2023/08/06 09:55:27;;;;;;;2.58;1.38;;;20.70;99.90;;;;;;5048205;28;20042;-84
2023/08/06 09:57:54;;;;;;;4.40;1.50;;;20.80;99.90;;;;;;5016057;28;20038;-84
2023/08/06 10:00:22;;;;;;;3.30;1.45;;;20.80;99.90;;;;;;5048202;28;20473;-84
2023/08/06 10:02:54;;;;;;;3.42;1.60;;;20.90;99.90;;;;;;5032385;28;20487;-84
2023/08/06 10:05:22;;;;;;;3.95;1.40;;;21.00;99.90;;;;;;5016248;28;20410;-84
2023/08/06 10:07:50;;;;;;;3.53;1.85;;;21.00;99.90;;;;;;5048315;28;20410;-84
2023/08/06 10:10:19;;;;;;;2.72;1.40;;;21.10;99.90;;;;;;5048433;28;20033;-84
2023/08/06 10:12:52;;;;;;;2.97;1.30;;;21.20;99.90;;;;;;5016382;28;20044;-84
2023/08/06 10:15:26;;;;;;;2.85;1.60;;;21.20;99.90;;;;;;5047501;28;20563;-84
2023/08/06 10:17:56;;;;;;;5.68;1.50;;;21.20;99.90;;;;;;5048400;28;20048;-84
2023/08/06 10:20:23;;;;;;;3.28;1.50;;;21.20;99.90;;;;;;5047353;28;20105;-85
2023/08/06 10:23:05;;;;;;;2.65;1.40;;;21.40;99.90;;;;;;5048321;28;20038;-85
2023/08/06 10:25:33;;;;;;;3.58;1.50;;;21.40;99.90;;;;;;5048028;28;20042;-85
2023/08/06 10:28:06;;;;;;;2.75;1.30;;;21.40;99.90;;;;;;5047931;28;20112;-84
2023/08/06 10:30:40;;;;;;;2.40;1.42;;;21.30;99.90;;;;;;5016394;28;20046;-84
2023/08/06 10:33:07;;;;;;;2.92;1.50;;;21.40;99.90;;;;;;5048211;28;20045;-84
2023/08/06 10:35:53;;;;;;;3.53;1.35;;;21.50;99.90;;;;;;5015060;28;20042;-84
2023/08/06 10:38:31;;;;;;;2.47;1.30;;;21.30;99.90;;;;;;5047704;28;20033;-84
2023/08/06 10:40:59;;;;;;;2.25;1.30;;;21.30;99.90;;;;;;5048024;28;20046;-84
2023/08/06 10:43:28;;;;;;;3.15;1.52;;;21.40;99.90;;;;;;5047722;28;20041;-84
2023/08/06 10:45:56;;;;;;;3.05;1.60;;;21.50;99.90;;;;;;5047787;28;20168;-84
2023/08/06 10:48:45;;;;;;;2.92;1.58;;;21.70;99.90;;;;;;5047210;28;20619;-84
2023/08/06 10:51:13;;;;;;;2.60;1.33;;;21.70;99.90;;;;;;5047707;28;20046;-84
2023/08/06 10:53:48;;;;;;;2.67;1.30;;;21.70;99.90;;;;;;5030996;28;20042;-84
2023/08/06 10:56:22;;;;;;;3.80;1.60;;;22.00;99.90;;;;;;5047862;28;20041;-84
2023/08/06 10:58:50;;;;;;;3.17;1.60;;;22.00;99.90;;;;;;5015511;28;20046;-84
2023/08/06 11:01:17;;;;;;;2.83;1.40;;;22.00;99.90;;;;;;5014890;28;20047;-84
2023/08/06 11:03:46;;;;;;;3.45;1.60;;;21.90;99.90;;;;;;5047215;28;20038;-84
2023/08/06 11:06:19;;;;;;;3.25;1.60;;;22.00;99.90;;;;;;5047510;28;20033;-84
2023/08/06 11:08:51;;;;;;;2.30;1.30;;;21.90;99.90;;;;;;5030924;28;20041;-84
2023/08/06 11:11:18;;;;;;;3.08;1.50;;;22.00;99.90;;;;;;5047180;28;20684;-84
2023/08/06 11:13:47;;;;;;;3.38;1.42;;;22.00;99.90;;;;;;5014749;28;20042;-84
2023/08/06 11:16:24;;;;;;;2.97;1.60;;;22.10;99.90;;;;;;5014678;28;20042;-84
2023/08/06 11:18:52;;;;;;;3.08;1.58;;;22.20;99.90;;;;;;5046778;28;20406;-84
2023/08/06 11:21:20;;;;;;;4.15;1.48;;;22.20;99.90;;;;;;5014808;28;20038;-84
2023/08/06 11:23:48;;;;;;;3.50;1.60;;;22.20;99.90;;;;;;5047261;28;20042;-84
2023/08/06 11:26:23;;;;;;;2.63;1.60;;;22.10;99.90;;;;;;5047055;28;20034;-84
2023/08/06 11:28:49;;;;;;;2.70;1.42;;;22.30;99.90;;;;;;5047392;28;20041;-84
2023/08/06 11:31:24;;;;;;;2.67;1.40;;;22.20;99.90;;;;;;5014293;28;20037;-84
2023/08/06 11:33:54;;;;;;;2.97;1.40;;;22.20;99.90;;;;;;5046237;28;20518;-84
2023/08/06 11:36:34;;;;;;;2.90;1.38;;;22.20;99.90;;;;;;5046624;28;20069;-84
2023/08/06 11:39:05;;;;;;;2.72;1.40;;;22.30;99.90;;;;;;5046805;28;20038;-84
2023/08/06 11:41:32;;;;;;;3.17;1.40;;;22.20;99.90;;;;;;5014397;28;20099;-84
2023/08/06 11:43:59;;;;;;;2.40;1.38;;;22.30;99.90;;;;;;5029908;28;20045;-84
2023/08/06 11:46:26;;;;;;;3.17;1.60;;;22.30;99.90;;;;;;5046332;28;20101;-84
2023/08/06 11:48:55;;;;;;;2.30;1.40;;;22.30;99.90;;;;;;5046759;28;20087;-84
2023/08/06 11:51:26;;;;;;;2.33;1.33;;;22.40;99.90;;;;;;5046449;28;20044;-84
2023/08/06 11:53:59;;;;;;;2.47;1.30;;;22.60;99.90;;;;;;5046717;28;20049;-84
2023/08/06 11:56:26;;;;;;;2.90;1.20;;;22.60;99.90;;;;;;5046435;28;20072;-85
2023/08/06 11:58:54;;;;;;;2.33;1.27;;;22.80;99.90;;;;;;5046624;28;20037;-85
2023/08/06 12:01:21;;;;;;;2.88;1.60;;;22.80;99.90;;;;;;5046449;28;20041;-84
2023/08/06 12:03:47;;;;;;;4.07;1.50;;;22.70;99.90;;;;;;5013060;28;20038;-84
2023/08/06 12:06:14;;;;;;;3.40;1.27;;;22.80;99.90;;;;;;5013737;28;20034;-84
2023/08/06 12:08:42;;;;;;;3.22;1.40;;;22.80;99.90;;;;;;5013686;28;20038;-85
2023/08/06 12:11:09;;;;;;;3.47;1.45;;;22.80;99.90;;;;;;5014118;28;20041;-85
2023/08/06 12:16:24;;;;;;;2.92;1.50;;;22.80;99.90;;;;;;5046164;28;20054;-84
2023/08/06 12:18:50;;;;;;;3.42;1.48;;;22.90;99.90;;;;;;5013199;28;20483;-84
2023/08/06 12:21:17;;;;;;;3.53;1.42;;;22.70;99.90;;;;;;5013871;28;20192;-84
2023/08/06 12:23:44;;;;;;;5.53;1.73;;;22.80;99.90;;;;;;5013171;28;20064;-84
2023/08/06 12:26:11;;;;;;;3.20;1.30;;;22.80;99.90;;;;;;5030019;28;20044;-84
2023/08/06 12:28:37;;;;;;;3.10;1.27;;;23.00;99.90;;;;;;5029730;28;20044;-84
2023/08/06 12:31:04;;;;;;;3.00;1.40;;;23.10;99.90;;;;;;5013351;28;20085;-85
2023/08/06 12:33:31;;;;;;;2.92;1.52;;;23.20;99.90;;;;;;5029433;28;20049;-84
2023/08/06 12:35:58;;;;;;;2.70;1.48;;;23.20;99.90;;;;;;5013186;28;20041;-85
2023/08/06 12:38:24;;;;;;;6.47;1.45;;;23.20;99.90;;;;;;5013631;28;20486;-85
2023/08/06 12:40:51;;;;;;;2.72;1.20;;;23.10;99.90;;;;;;5013199;28;20133;-84
2023/08/06 12:43:18;;;;;;;2.92;1.30;;;22.90;99.90;;;;;;5013220;28;20147;-84
2023/08/06 12:45:44;;;;;;;2.80;1.40;;;22.60;99.90;;;;;;5012543;28;20115;-85
2023/08/06 12:48:11;;;;;;;2.33;1.27;;;22.30;99.90;;;;;;5013166;28;20128;-84
2023/08/06 12:50:38;;;;;;;2.03;1.13;;;22.00;99.90;;;;;;5029225;28;20045;-85